sensor_id;sensor_type;location;lat;lon;timestamp;P1;durP1;ratioP1;P2;durP2;ratioP2
53674;SDS011;39574;50.534;8.500;2023-12-20T00:02:44;4.8;;;1.9;;
53674;SDS011;39574;50.534;8.500;2023-12-20T00:07:44;5.0;;;2.1;;
53674;SDS011;39574;50.534;8.500;2023-12-20T00:12:42;5.0;;;2.0;;
53674;SDS011;39574;50.534;8.500;2023-12-20T00:17:41;4.5;;;1.9;;
53674;SDS011;39574;50.534;8.500;2023-12-20T00:22:39;4.4;;;2.0;;
53674;SDS011;39574;50.534;8.500;2023-12-20T00:27:38;4.3;;;2.0;;
53674;SDS011;39574;50.534;8.500;2023-12-20T00:37:36;4.4;;;2.0;;
53674;SDS011;39574;50.534;8.500;2023-12-20T00:42:35;4.3;;;1.9;;
53674;SDS011;39574;50.534;8.500;2023-12-20T00:47:38;4.4;;;1.8;;
53674;SDS011;39574;50.534;8.500;2023-12-20T00:52:32;4.1;;;1.7;;
53674;SDS011;39574;50.534;8.500;2023-12-20T00:57:32;4.6;;;1.8;;
53674;SDS011;39574;50.534;8.500;2023-12-20T01:02:30;8.2;;;3.5;;
53674;SDS011;39574;50.534;8.500;2023-12-20T01:07:33;7.5;;;3.1;;
53674;SDS011;39574;50.534;8.500;2023-12-20T01:12:28;6.5;;;2.8;;
53674;SDS011;39574;50.534;8.500;2023-12-20T01:17:27;5.4;;;2.4;;
53674;SDS011;39574;50.534;8.500;2023-12-20T01:22:25;4.3;;;1.9;;
53674;SDS011;39574;50.534;8.500;2023-12-20T01:27:24;4.3;;;2.0;;
53674;SDS011;39574;50.534;8.500;2023-12-20T01:32:23;4.7;;;2.0;;
53674;SDS011;39574;50.534;8.500;2023-12-20T01:37:22;4.8;;;2.1;;
53674;SDS011;39574;50.534;8.500;2023-12-20T01:42:25;4.8;;;2.2;;
53674;SDS011;39574;50.534;8.500;2023-12-20T01:47:20;5.6;;;2.5;;
53674;SDS011;39574;50.534;8.500;2023-12-20T01:52:18;5.1;;;2.3;;
53674;SDS011;39574;50.534;8.500;2023-12-20T01:57:17;4.8;;;2.2;;
53674;SDS011;39574;50.534;8.500;2023-12-20T02:02:15;5.0;;;2.2;;
53674;SDS011;39574;50.534;8.500;2023-12-20T02:07:15;4.8;;;2.2;;
53674;SDS011;39574;50.534;8.500;2023-12-20T02:12:18;5.0;;;2.3;;
53674;SDS011;39574;50.534;8.500;2023-12-20T02:17:12;5.0;;;2.4;;
53674;SDS011;39574;50.534;8.500;2023-12-20T02:22:11;4.9;;;2.4;;
53674;SDS011;39574;50.534;8.500;2023-12-20T02:27:10;4.8;;;2.3;;
53674;SDS011;39574;50.534;8.500;2023-12-20T02:32:08;4.8;;;2.2;;
53674;SDS011;39574;50.534;8.500;2023-12-20T02:37:12;4.5;;;2.1;;
53674;SDS011;39574;50.534;8.500;2023-12-20T02:42:10;4.7;;;2.0;;
53674;SDS011;39574;50.534;8.500;2023-12-20T02:47:06;5.1;;;2.2;;
53674;SDS011;39574;50.534;8.500;2023-12-20T02:52:07;7.2;;;2.9;;
53674;SDS011;39574;50.534;8.500;2023-12-20T02:57:03;7.6;;;3.2;;
53674;SDS011;39574;50.534;8.500;2023-12-20T03:02:06;6.6;;;2.9;;
53674;SDS011;39574;50.534;8.500;2023-12-20T03:12:00;5.5;;;2.5;;
53674;SDS011;39574;50.534;8.500;2023-12-20T03:17:03;4.6;;;2.2;;
53674;SDS011;39574;50.534;8.500;2023-12-20T03:21:56;4.5;;;2.1;;
53674;SDS011;39574;50.534;8.500;2023-12-20T03:31:54;4.5;;;2.0;;
53674;SDS011;39574;50.534;8.500;2023-12-20T03:36:58;4.6;;;1.9;;
53674;SDS011;39574;50.534;8.500;2023-12-20T03:41:54;4.5;;;2.0;;
53674;SDS011;39574;50.534;8.500;2023-12-20T03:46:51;4.5;;;2.1;;
53674;SDS011;39574;50.534;8.500;2023-12-20T03:51:49;6.3;;;2.3;;
53674;SDS011;39574;50.534;8.500;2023-12-20T03:56:49;7.1;;;2.6;;
53674;SDS011;39574;50.534;8.500;2023-12-20T04:01:48;6.8;;;2.6;;
53674;SDS011;39574;50.534;8.500;2023-12-20T04:06:51;7.0;;;2.8;;
53674;SDS011;39574;50.534;8.500;2023-12-20T04:11:45;6.7;;;2.7;;
53674;SDS011;39574;50.534;8.500;2023-12-20T04:21:43;6.8;;;2.8;;
53674;SDS011;39574;50.534;8.500;2023-12-20T04:26:42;6.8;;;2.8;;
53674;SDS011;39574;50.534;8.500;2023-12-20T04:31:41;8.3;;;3.4;;
53674;SDS011;39574;50.534;8.500;2023-12-20T04:36:39;9.7;;;3.9;;
53674;SDS011;39574;50.534;8.500;2023-12-20T04:41:38;10.7;;;4.2;;
53674;SDS011;39574;50.534;8.500;2023-12-20T04:46:37;10.4;;;4.4;;
53674;SDS011;39574;50.534;8.500;2023-12-20T04:51:36;9.9;;;4.3;;
53674;SDS011;39574;50.534;8.500;2023-12-20T04:56:35;11.3;;;4.6;;
53674;SDS011;39574;50.534;8.500;2023-12-20T05:01:33;10.7;;;4.3;;
53674;SDS011;39574;50.534;8.500;2023-12-20T05:06:35;10.6;;;4.3;;
53674;SDS011;39574;50.534;8.500;2023-12-20T05:11:31;10.3;;;4.0;;
53674;SDS011;39574;50.534;8.500;2023-12-20T05:16:30;8.8;;;3.8;;
53674;SDS011;39574;50.534;8.500;2023-12-20T05:21:28;8.9;;;3.9;;
53674;SDS011;39574;50.534;8.500;2023-12-20T05:26:27;9.0;;;3.6;;
53674;SDS011;39574;50.534;8.500;2023-12-20T05:36:24;10.1;;;3.8;;
53674;SDS011;39574;50.534;8.500;2023-12-20T05:41:24;9.8;;;3.6;;
53674;SDS011;39574;50.534;8.500;2023-12-20T05:46:22;9.2;;;3.7;;
53674;SDS011;39574;50.534;8.500;2023-12-20T05:51:21;10.0;;;3.7;;
53674;SDS011;39574;50.534;8.500;2023-12-20T05:56:24;10.0;;;3.6;;
53674;SDS011;39574;50.534;8.500;2023-12-20T06:01:19;10.0;;;3.3;;
53674;SDS011;39574;50.534;8.500;2023-12-20T06:06:18;9.6;;;3.1;;
53674;SDS011;39574;50.534;8.500;2023-12-20T06:11:16;9.7;;;3.1;;
53674;SDS011;39574;50.534;8.500;2023-12-20T06:16:15;9.4;;;3.3;;
53674;SDS011;39574;50.534;8.500;2023-12-20T06:21:14;11.1;;;3.6;;
53674;SDS011;39574;50.534;8.500;2023-12-20T06:26:13;13.2;;;3.7;;
53674;SDS011;39574;50.534;8.500;2023-12-20T06:31:12;13.6;;;3.6;;
53674;SDS011;39574;50.534;8.500;2023-12-20T06:36:11;12.1;;;3.4;;
53674;SDS011;39574;50.534;8.500;2023-12-20T06:41:08;11.6;;;3.3;;
53674;SDS011;39574;50.534;8.500;2023-12-20T06:46:08;10.8;;;3.5;;
53674;SDS011;39574;50.534;8.500;2023-12-20T06:51:10;12.3;;;3.8;;
53674;SDS011;39574;50.534;8.500;2023-12-20T06:56:06;11.8;;;3.6;;
53674;SDS011;39574;50.534;8.500;2023-12-20T07:06:02;12.1;;;3.6;;
53674;SDS011;39574;50.534;8.500;2023-12-20T07:11:02;14.1;;;3.6;;
53674;SDS011;39574;50.534;8.500;2023-12-20T07:20:59;13.9;;;3.6;;
53674;SDS011;39574;50.534;8.500;2023-12-20T07:25:57;14.5;;;3.6;;
53674;SDS011;39574;50.534;8.500;2023-12-20T07:30:56;13.8;;;3.6;;
53674;SDS011;39574;50.534;8.500;2023-12-20T07:35:55;13.5;;;3.6;;
53674;SDS011;39574;50.534;8.500;2023-12-20T07:40:54;12.4;;;3.5;;
53674;SDS011;39574;50.534;8.500;2023-12-20T07:45:57;13.7;;;3.7;;
53674;SDS011;39574;50.534;8.500;2023-12-20T07:50:51;14.2;;;3.7;;
53674;SDS011;39574;50.534;8.500;2023-12-20T07:55:50;13.6;;;3.5;;
53674;SDS011;39574;50.534;8.500;2023-12-20T08:00:53;13.2;;;3.6;;
53674;SDS011;39574;50.534;8.500;2023-12-20T08:05:48;13.3;;;3.7;;
53674;SDS011;39574;50.534;8.500;2023-12-20T08:15:45;15.8;;;5.1;;
53674;SDS011;39574;50.534;8.500;2023-12-20T08:20:43;17.7;;;5.4;;
53674;SDS011;39574;50.534;8.500;2023-12-20T08:25:42;17.7;;;5.3;;
53674;SDS011;39574;50.534;8.500;2023-12-20T08:30:42;15.4;;;4.7;;
53674;SDS011;39574;50.534;8.500;2023-12-20T08:35:40;13.7;;;4.1;;
53674;SDS011;39574;50.534;8.500;2023-12-20T08:40:39;12.0;;;4.1;;
53674;SDS011;39574;50.534;8.500;2023-12-20T08:45:38;14.5;;;4.8;;
53674;SDS011;39574;50.534;8.500;2023-12-20T08:50:36;15.4;;;5.2;;
53674;SDS011;39574;50.534;8.500;2023-12-20T09:00:34;15.7;;;5.0;;
53674;SDS011;39574;50.534;8.500;2023-12-20T09:05:32;15.3;;;4.7;;
53674;SDS011;39574;50.534;8.500;2023-12-20T09:10:31;14.9;;;4.3;;
53674;SDS011;39574;50.534;8.500;2023-12-20T09:15:30;14.3;;;4.2;;
53674;SDS011;39574;50.534;8.500;2023-12-20T09:20:29;13.4;;;3.9;;
53674;SDS011;39574;50.534;8.500;2023-12-20T09:25:28;13.3;;;3.9;;
53674;SDS011;39574;50.534;8.500;2023-12-20T09:30:26;12.8;;;4.0;;
53674;SDS011;39574;50.534;8.500;2023-12-20T09:35:25;14.2;;;4.1;;
53674;SDS011;39574;50.534;8.500;2023-12-20T09:45:23;15.1;;;4.2;;
53674;SDS011;39574;50.534;8.500;2023-12-20T09:55:21;14.3;;;4.0;;
53674;SDS011;39574;50.534;8.500;2023-12-20T10:00:19;13.2;;;3.7;;
53674;SDS011;39574;50.534;8.500;2023-12-20T10:10:16;11.3;;;3.5;;
53674;SDS011;39574;50.534;8.500;2023-12-20T10:15:16;11.9;;;3.5;;
53674;SDS011;39574;50.534;8.500;2023-12-20T10:20:14;12.2;;;3.5;;
53674;SDS011;39574;50.534;8.500;2023-12-20T10:25:13;12.2;;;3.5;;
53674;SDS011;39574;50.534;8.500;2023-12-20T10:30:16;13.8;;;3.4;;
53674;SDS011;39574;50.534;8.500;2023-12-20T10:35:11;12.1;;;3.3;;
53674;SDS011;39574;50.534;8.500;2023-12-20T10:40:10;11.2;;;3.2;;
53674;SDS011;39574;50.534;8.500;2023-12-20T10:45:09;10.8;;;3.2;;
53674;SDS011;39574;50.534;8.500;2023-12-20T10:50:07;12.0;;;3.5;;
53674;SDS011;39574;50.534;8.500;2023-12-20T10:55:06;12.0;;;3.6;;
53674;SDS011;39574;50.534;8.500;2023-12-20T11:00:04;13.3;;;4.7;;
53674;SDS011;39574;50.534;8.500;2023-12-20T11:10:03;14.0;;;4.4;;
53674;SDS011;39574;50.534;8.500;2023-12-20T11:15:05;12.0;;;4.0;;
53674;SDS011;39574;50.534;8.500;2023-12-20T11:20:07;11.4;;;3.7;;
53674;SDS011;39574;50.534;8.500;2023-12-20T11:24:59;11.6;;;3.6;;
53674;SDS011;39574;50.534;8.500;2023-12-20T11:29:58;11.3;;;3.7;;
53674;SDS011;39574;50.534;8.500;2023-12-20T11:34:56;12.5;;;3.8;;
53674;SDS011;39574;50.534;8.500;2023-12-20T11:39:55;12.7;;;4.0;;
53674;SDS011;39574;50.534;8.500;2023-12-20T11:44:54;13.0;;;4.3;;
53674;SDS011;39574;50.534;8.500;2023-12-20T11:54:51;12.1;;;4.1;;
53674;SDS011;39574;50.534;8.500;2023-12-20T11:59:49;11.3;;;4.0;;
53674;SDS011;39574;50.534;8.500;2023-12-20T12:04:48;12.6;;;3.9;;
53674;SDS011;39574;50.534;8.500;2023-12-20T12:09:47;13.7;;;4.0;;
53674;SDS011;39574;50.534;8.500;2023-12-20T12:14:46;13.8;;;4.0;;
53674;SDS011;39574;50.534;8.500;2023-12-20T12:19:45;12.5;;;3.9;;
53674;SDS011;39574;50.534;8.500;2023-12-20T12:24:45;11.7;;;3.9;;
53674;SDS011;39574;50.534;8.500;2023-12-20T12:30:00;11.3;;;3.9;;
53674;SDS011;39574;50.534;8.500;2023-12-20T12:34:41;12.4;;;4.0;;
53674;SDS011;39574;50.534;8.500;2023-12-20T12:39:40;12.9;;;4.0;;
53674;SDS011;39574;50.534;8.500;2023-12-20T12:44:39;11.8;;;3.9;;
53674;SDS011;39574;50.534;8.500;2023-12-20T12:49:43;10.9;;;3.8;;
53674;SDS011;39574;50.534;8.500;2023-12-20T12:54:37;10.7;;;3.8;;
53674;SDS011;39574;50.534;8.500;2023-12-20T12:59:36;11.2;;;3.8;;
53674;SDS011;39574;50.534;8.500;2023-12-20T13:04:35;12.8;;;3.8;;
53674;SDS011;39574;50.534;8.500;2023-12-20T13:09:34;13.8;;;3.9;;
53674;SDS011;39574;50.534;8.500;2023-12-20T13:19:30;14.1;;;3.9;;
53674;SDS011;39574;50.534;8.500;2023-12-20T13:24:29;14.6;;;3.9;;
53674;SDS011;39574;50.534;8.500;2023-12-20T13:29:29;12.8;;;3.8;;
53674;SDS011;39574;50.534;8.500;2023-12-20T13:34:32;12.2;;;3.9;;
53674;SDS011;39574;50.534;8.500;2023-12-20T13:39:26;11.4;;;4.0;;
53674;SDS011;39574;50.534;8.500;2023-12-20T13:44:25;12.6;;;4.1;;
53674;SDS011;39574;50.534;8.500;2023-12-20T13:49:24;12.4;;;4.2;;
53674;SDS011;39574;50.534;8.500;2023-12-20T13:54:27;12.9;;;4.2;;
53674;SDS011;39574;50.534;8.500;2023-12-20T13:59:21;12.9;;;4.2;;
53674;SDS011;39574;50.534;8.500;2023-12-20T14:04:19;12.2;;;4.3;;
53674;SDS011;39574;50.534;8.500;2023-12-20T14:09:23;12.9;;;4.5;;
53674;SDS011;39574;50.534;8.500;2023-12-20T14:19:17;12.1;;;4.4;;
53674;SDS011;39574;50.534;8.500;2023-12-20T14:24:14;11.7;;;4.2;;
53674;SDS011;39574;50.534;8.500;2023-12-20T14:29:14;11.1;;;4.1;;
53674;SDS011;39574;50.534;8.500;2023-12-20T14:34:12;10.2;;;4.0;;
53674;SDS011;39574;50.534;8.500;2023-12-20T14:39:11;11.2;;;4.5;;
53674;SDS011;39574;50.534;8.500;2023-12-20T14:54:10;12.2;;;4.6;;
53674;SDS011;39574;50.534;8.500;2023-12-20T15:04:05;13.1;;;4.5;;
53674;SDS011;39574;50.534;8.500;2023-12-20T15:09:04;12.3;;;4.3;;
53674;SDS011;39574;50.534;8.500;2023-12-20T15:14:08;12.3;;;4.1;;
53674;SDS011;39574;50.534;8.500;2023-12-20T15:19:01;11.4;;;3.9;;
53674;SDS011;39574;50.534;8.500;2023-12-20T15:24:00;10.8;;;3.7;;
53674;SDS011;39574;50.534;8.500;2023-12-20T15:29:00;11.2;;;3.9;;
53674;SDS011;39574;50.534;8.500;2023-12-20T15:33:58;11.3;;;4.1;;
53674;SDS011;39574;50.534;8.500;2023-12-20T15:39:01;11.4;;;4.3;;
53674;SDS011;39574;50.534;8.500;2023-12-20T15:43:56;11.3;;;4.3;;
53674;SDS011;39574;50.534;8.500;2023-12-20T15:48:55;9.9;;;3.8;;
53674;SDS011;39574;50.534;8.500;2023-12-20T15:53:53;10.1;;;3.6;;
53674;SDS011;39574;50.534;8.500;2023-12-20T15:58:52;11.1;;;3.8;;
53674;SDS011;39574;50.534;8.500;2023-12-20T16:03:56;10.5;;;3.7;;
53674;SDS011;39574;50.534;8.500;2023-12-20T16:08:52;11.0;;;4.0;;
53674;SDS011;39574;50.534;8.500;2023-12-20T16:13:49;11.5;;;3.8;;
53674;SDS011;39574;50.534;8.500;2023-12-20T16:18:48;12.3;;;3.8;;
53674;SDS011;39574;50.534;8.500;2023-12-20T16:28:45;11.0;;;3.7;;
53674;SDS011;39574;50.534;8.500;2023-12-20T16:33:44;11.4;;;3.7;;
53674;SDS011;39574;50.534;8.500;2023-12-20T16:38:42;10.7;;;3.5;;
53674;SDS011;39574;50.534;8.500;2023-12-20T16:43:41;9.9;;;3.7;;
53674;SDS011;39574;50.534;8.500;2023-12-20T16:48:40;10.6;;;4.6;;
53674;SDS011;39574;50.534;8.500;2023-12-20T16:53:38;11.7;;;4.7;;
53674;SDS011;39574;50.534;8.500;2023-12-20T17:03:38;11.8;;;4.2;;
53674;SDS011;39574;50.534;8.500;2023-12-20T17:08:35;11.9;;;3.9;;
53674;SDS011;39574;50.534;8.500;2023-12-20T17:13:35;11.3;;;3.7;;
53674;SDS011;39574;50.534;8.500;2023-12-20T17:18:33;10.2;;;3.5;;
53674;SDS011;39574;50.534;8.500;2023-12-20T17:23:32;10.5;;;3.9;;
53674;SDS011;39574;50.534;8.500;2023-12-20T17:28:31;9.8;;;3.7;;
53674;SDS011;39574;50.534;8.500;2023-12-20T17:33:29;10.8;;;4.0;;
53674;SDS011;39574;50.534;8.500;2023-12-20T17:38:32;10.3;;;3.6;;
53674;SDS011;39574;50.534;8.500;2023-12-20T17:43:27;8.8;;;3.4;;
53674;SDS011;39574;50.534;8.500;2023-12-20T17:48:26;8.7;;;3.4;;
53674;SDS011;39574;50.534;8.500;2023-12-20T17:53:24;11.3;;;3.9;;
53674;SDS011;39574;50.534;8.500;2023-12-20T17:58:23;12.1;;;4.5;;
53674;SDS011;39574;50.534;8.500;2023-12-20T18:03:22;12.1;;;4.6;;
53674;SDS011;39574;50.534;8.500;2023-12-20T18:08:21;11.4;;;4.2;;
53674;SDS011;39574;50.534;8.500;2023-12-20T18:13:20;9.6;;;3.7;;
53674;SDS011;39574;50.534;8.500;2023-12-20T18:18:19;9.3;;;3.6;;
53674;SDS011;39574;50.534;8.500;2023-12-20T18:23:17;10.8;;;3.9;;
53674;SDS011;39574;50.534;8.500;2023-12-20T18:28:20;10.7;;;4.2;;
53674;SDS011;39574;50.534;8.500;2023-12-20T18:33:14;11.1;;;3.8;;
53674;SDS011;39574;50.534;8.500;2023-12-20T18:38:14;11.6;;;3.7;;
53674;SDS011;39574;50.534;8.500;2023-12-20T18:43:12;10.3;;;3.2;;
53674;SDS011;39574;50.534;8.500;2023-12-20T18:48:11;10.3;;;3.2;;
53674;SDS011;39574;50.534;8.500;2023-12-20T18:53:10;9.4;;;2.9;;
53674;SDS011;39574;50.534;8.500;2023-12-20T19:03:07;8.8;;;2.8;;
53674;SDS011;39574;50.534;8.500;2023-12-20T19:08:06;8.4;;;2.8;;
53674;SDS011;39574;50.534;8.500;2023-12-20T19:13:05;7.7;;;2.8;;
53674;SDS011;39574;50.534;8.500;2023-12-20T19:18:03;7.6;;;2.8;;
53674;SDS011;39574;50.534;8.500;2023-12-20T19:23:03;8.8;;;3.1;;
53674;SDS011;39574;50.534;8.500;2023-12-20T19:28:01;8.7;;;3.2;;
53674;SDS011;39574;50.534;8.500;2023-12-20T19:33:00;7.5;;;3.0;;
53674;SDS011;39574;50.534;8.500;2023-12-20T19:38:03;8.7;;;3.3;;
53674;SDS011;39574;50.534;8.500;2023-12-20T19:43:00;8.2;;;3.2;;
53674;SDS011;39574;50.534;8.500;2023-12-20T19:47:57;8.2;;;3.1;;
53674;SDS011;39574;50.534;8.500;2023-12-20T19:52:55;8.1;;;2.8;;
53674;SDS011;39574;50.534;8.500;2023-12-20T19:57:54;8.0;;;2.6;;
53674;SDS011;39574;50.534;8.500;2023-12-20T20:02:52;7.7;;;2.7;;
53674;SDS011;39574;50.534;8.500;2023-12-20T20:07:51;7.2;;;2.5;;
53674;SDS011;39574;50.534;8.500;2023-12-20T20:12:50;7.6;;;2.6;;
53674;SDS011;39574;50.534;8.500;2023-12-20T20:17:54;7.2;;;2.6;;
53674;SDS011;39574;50.534;8.500;2023-12-20T20:22:49;7.7;;;2.8;;
53674;SDS011;39574;50.534;8.500;2023-12-20T20:27:47;9.7;;;3.9;;
53674;SDS011;39574;50.534;8.500;2023-12-20T20:32:51;9.9;;;4.3;;
53674;SDS011;39574;50.534;8.500;2023-12-20T20:37:44;9.3;;;3.9;;
53674;SDS011;39574;50.534;8.500;2023-12-20T20:42:43;8.6;;;3.5;;
53674;SDS011;39574;50.534;8.500;2023-12-20T20:47:42;8.2;;;3.1;;
53674;SDS011;39574;50.534;8.500;2023-12-20T20:52:42;7.7;;;2.9;;
53674;SDS011;39574;50.534;8.500;2023-12-20T20:57:40;7.6;;;2.8;;
53674;SDS011;39574;50.534;8.500;2023-12-20T21:07:37;8.2;;;2.7;;
53674;SDS011;39574;50.534;8.500;2023-12-20T21:12:35;8.3;;;2.6;;
53674;SDS011;39574;50.534;8.500;2023-12-20T21:17:34;8.7;;;2.6;;
53674;SDS011;39574;50.534;8.500;2023-12-20T21:22:33;7.5;;;2.6;;
53674;SDS011;39574;50.534;8.500;2023-12-20T21:27:33;7.4;;;2.4;;
53674;SDS011;39574;50.534;8.500;2023-12-20T21:37:30;6.8;;;2.4;;
53674;SDS011;39574;50.534;8.500;2023-12-20T21:42:29;6.1;;;2.2;;
53674;SDS011;39574;50.534;8.500;2023-12-20T21:47:28;6.3;;;2.2;;
53674;SDS011;39574;50.534;8.500;2023-12-20T21:52:26;6.4;;;2.3;;
53674;SDS011;39574;50.534;8.500;2023-12-20T22:07:23;9.7;;;3.4;;
53674;SDS011;39574;50.534;8.500;2023-12-20T22:12:21;10.5;;;3.7;;
53674;SDS011;39574;50.534;8.500;2023-12-20T22:17:21;10.4;;;3.8;;
53674;SDS011;39574;50.534;8.500;2023-12-20T22:22:19;9.5;;;3.9;;
53674;SDS011;39574;50.534;8.500;2023-12-20T22:32:17;7.5;;;3.2;;
53674;SDS011;39574;50.534;8.500;2023-12-20T22:37:15;7.4;;;2.9;;
53674;SDS011;39574;50.534;8.500;2023-12-20T22:42:14;7.1;;;2.9;;
53674;SDS011;39574;50.534;8.500;2023-12-20T22:47:13;6.7;;;2.5;;
53674;SDS011;39574;50.534;8.500;2023-12-20T22:52:12;6.7;;;2.4;;
53674;SDS011;39574;50.534;8.500;2023-12-20T22:57:11;6.8;;;2.4;;
53674;SDS011;39574;50.534;8.500;2023-12-20T23:02:10;6.2;;;2.3;;
53674;SDS011;39574;50.534;8.500;2023-12-20T23:07:09;5.7;;;2.3;;
53674;SDS011;39574;50.534;8.500;2023-12-20T23:12:08;6.1;;;2.3;;
53674;SDS011;39574;50.534;8.500;2023-12-20T23:17:06;6.0;;;2.2;;
53674;SDS011;39574;50.534;8.500;2023-12-20T23:22:05;5.8;;;2.1;;
53674;SDS011;39574;50.534;8.500;2023-12-20T23:27:04;6.4;;;2.2;;
53674;SDS011;39574;50.534;8.500;2023-12-20T23:32:02;7.0;;;2.2;;
53674;SDS011;39574;50.534;8.500;2023-12-20T23:37:02;7.0;;;2.2;;
53674;SDS011;39574;50.534;8.500;2023-12-20T23:42:00;6.3;;;2.1;;
53674;SDS011;39574;50.534;8.500;2023-12-20T23:46:59;5.4;;;2.0;;
53674;SDS011;39574;50.534;8.500;2023-12-20T23:51:58;4.8;;;2.0;;
53674;SDS011;39574;50.534;8.500;2023-12-20T23:56:57;4.8;;;1.9;;
